createdAt,value
2024-01-16T00:07:11.298Z,-0.27
2024-01-16T00:17:11.216Z,-0.40
2024-01-16T00:27:11.247Z,-0.70
2024-01-16T00:37:10.993Z,-0.79
2024-01-16T00:47:10.918Z,-0.92
2024-01-16T00:57:10.769Z,-1.11
2024-01-16T01:07:10.668Z,-1.35
2024-01-16T01:17:10.609Z,-1.43
2024-01-16T01:27:10.469Z,-1.53
2024-01-16T01:37:10.388Z,-1.63
2024-01-16T01:47:10.335Z,-1.61
2024-01-16T01:57:10.161Z,-1.70
2024-01-16T02:07:10.078Z,-1.88
2024-01-16T02:17:09.998Z,-1.88
2024-01-16T02:27:09.870Z,-1.97
2024-01-16T02:37:09.964Z,-2.09
2024-01-16T02:47:09.739Z,-2.12
2024-01-16T02:57:09.594Z,-2.10
2024-01-16T03:07:09.495Z,-2.49
2024-01-16T03:17:09.456Z,-3.18
2024-01-16T03:27:09.307Z,-3.65
2024-01-16T03:37:09.233Z,-3.58
2024-01-16T03:47:09.169Z,-3.50
2024-01-16T03:57:09.040Z,-3.15
2024-01-16T04:07:08.911Z,-2.88
2024-01-16T04:17:08.857Z,-2.80
2024-01-16T04:27:08.717Z,-2.76
2024-01-16T04:37:08.637Z,-2.52
2024-01-16T04:47:08.566Z,-2.36
2024-01-16T04:57:08.453Z,-2.41
2024-01-16T05:07:08.341Z,-2.44
2024-01-16T05:17:16.016Z,-2.27
2024-01-16T05:27:08.229Z,-2.09
2024-01-16T05:37:16.753Z,-2.09
2024-01-16T05:47:08.099Z,-2.20
2024-01-16T05:57:08.225Z,-2.09
2024-01-16T06:07:08.049Z,-1.97
2024-01-16T06:17:07.761Z,-2.10
2024-01-16T06:27:07.773Z,-2.22
2024-01-16T06:37:07.509Z,-2.37
2024-01-16T06:47:07.487Z,-2.52
2024-01-16T06:57:07.325Z,-2.46
2024-01-16T07:07:07.333Z,-2.24
2024-01-16T07:17:07.132Z,-2.07
2024-01-16T07:27:06.997Z,-1.99
2024-01-16T07:37:06.880Z,-1.81
2024-01-16T07:47:06.841Z,-1.58
2024-01-16T07:57:06.895Z,-1.53
2024-01-16T08:07:06.635Z,-1.31
2024-01-16T08:17:06.530Z,-1.24
2024-01-16T08:27:06.436Z,-1.14
2024-01-16T08:37:06.359Z,-1.01
2024-01-16T08:47:06.265Z,-0.77
2024-01-16T08:57:16.468Z,-0.64
2024-01-16T09:07:06.376Z,-0.48
2024-01-16T09:17:05.978Z,-0.37
2024-01-16T09:27:05.847Z,-0.30
2024-01-16T09:37:05.740Z,-0.35
2024-01-16T09:47:05.671Z,-0.31
2024-01-16T09:57:05.533Z,-0.37
2024-01-16T10:07:05.515Z,-0.09
2024-01-16T10:17:05.363Z,0.19
2024-01-16T10:27:05.258Z,0.51
2024-01-16T10:37:05.198Z,1.07
2024-01-16T10:47:05.046Z,1.14
2024-01-16T10:57:04.943Z,1.03
2024-01-16T11:07:04.941Z,1.39
2024-01-16T11:17:04.743Z,1.12
2024-01-16T11:27:04.752Z,0.86
2024-01-16T11:37:04.538Z,0.88
2024-01-16T11:47:04.554Z,0.99
2024-01-16T11:57:04.399Z,0.84
2024-01-16T12:07:04.374Z,0.76
2024-01-16T12:17:04.149Z,0.81
2024-01-16T12:27:04.076Z,0.97
2024-01-16T12:37:03.946Z,0.94
2024-01-16T12:47:03.883Z,1.03
2024-01-16T12:57:03.934Z,1.24
2024-01-16T13:07:03.796Z,1.12
2024-01-16T13:17:03.645Z,0.89
2024-01-16T13:27:03.609Z,0.96
2024-01-16T13:47:08.660Z,1.53
2024-01-16T13:57:07.365Z,1.33
2024-01-16T14:07:11.972Z,1.29
2024-01-16T14:17:03.045Z,1.17
2024-01-16T14:27:02.885Z,1.22
2024-01-16T14:37:02.775Z,1.22
2024-01-16T14:47:02.680Z,1.20
2024-01-16T14:57:02.748Z,1.18
2024-01-16T15:07:02.715Z,1.02
2024-01-16T15:17:02.426Z,1.02
2024-01-16T15:27:02.380Z,0.81
2024-01-16T15:37:02.308Z,0.56
2024-01-16T15:47:02.124Z,0.45
2024-01-16T15:57:02.178Z,0.45
2024-01-16T16:07:01.972Z,0.44
2024-01-16T16:17:01.768Z,0.39
2024-01-16T16:27:01.668Z,0.47
2024-01-16T16:37:01.608Z,0.39
2024-01-16T16:47:01.504Z,0.44
2024-01-16T16:57:01.546Z,0.47
2024-01-16T17:07:01.382Z,0.48
2024-01-16T17:17:01.227Z,0.45
2024-01-16T17:27:01.153Z,0.51
2024-01-16T17:37:01.003Z,0.53
2024-01-16T17:47:00.878Z,0.38
2024-01-16T17:57:00.801Z,0.30
2024-01-16T18:07:00.809Z,0.31
2024-01-16T18:17:00.576Z,0.38
2024-01-16T18:27:00.601Z,0.39
2024-01-16T18:37:00.514Z,0.47
2024-01-16T18:47:00.355Z,0.39
2024-01-16T18:57:00.294Z,0.27
2024-01-16T19:07:00.109Z,0.27
2024-01-16T19:17:00.003Z,0.26
2024-01-16T19:26:59.966Z,0.24
2024-01-16T19:36:59.799Z,0.23
2024-01-16T19:46:59.923Z,0.27
2024-01-16T19:56:59.616Z,0.26
2024-01-16T20:06:59.763Z,0.27
2024-01-16T20:16:59.395Z,0.27
2024-01-16T20:26:59.359Z,0.27
2024-01-16T20:36:59.497Z,0.21
2024-01-16T20:46:59.139Z,0.19
2024-01-16T20:56:59.364Z,0.19
2024-01-16T21:06:59.000Z,0.13
2024-01-16T21:16:58.878Z,0.03
2024-01-16T21:26:58.837Z,-0.07
2024-01-16T21:36:58.732Z,-0.13
2024-01-16T21:46:58.549Z,-0.27
2024-01-16T21:56:58.559Z,-0.37
2024-01-16T22:06:58.413Z,-0.45
2024-01-16T22:16:58.255Z,-0.44
2024-01-16T22:26:58.140Z,-0.40
2024-01-16T22:36:58.061Z,-0.49
2024-01-16T22:46:57.940Z,-0.74
2024-01-16T22:56:57.880Z,-1.00
2024-01-16T23:06:57.791Z,-1.13
2024-01-16T23:16:57.639Z,-1.28
2024-01-16T23:27:05.206Z,-1.43
2024-01-16T23:36:57.482Z,-1.53
2024-01-16T23:46:57.358Z,-1.61
2024-01-16T23:56:57.645Z,-1.70
